sensor_id;sensor_type;location;lat;lon;timestamp;pressure;altitude;pressure_sealevel;temperature;humidity
10167;BME280;62970;53.130;8.244;2023-02-07T00:00:00;104206.25;;;-2.64;73.84
10167;BME280;62970;53.130;8.244;2023-02-07T00:02:30;104209.16;;;-2.70;73.97
10167;BME280;62970;53.130;8.244;2023-02-07T00:05:03;104211.34;;;-2.74;73.59
10167;BME280;62970;53.130;8.244;2023-02-07T00:07:32;104213.50;;;-2.79;73.72
10167;BME280;62970;53.130;8.244;2023-02-07T00:10:02;104202.88;;;-2.83;73.91
10167;BME280;62970;53.130;8.244;2023-02-07T00:12:34;104194.06;;;-2.87;73.59
10167;BME280;62970;53.130;8.244;2023-02-07T00:15:04;104198.03;;;-2.90;73.99
10167;BME280;62970;53.130;8.244;2023-02-07T00:17:34;104200.31;;;-2.93;73.74
10167;BME280;62970;53.130;8.244;2023-02-07T00:20:08;104206.81;;;-2.97;73.72
10167;BME280;62970;53.130;8.244;2023-02-07T00:22:39;104201.44;;;-3.00;73.42
10167;BME280;62970;53.130;8.244;2023-02-07T00:25:09;104199.50;;;-3.03;73.82
10167;BME280;62970;53.130;8.244;2023-02-07T00:27:38;104195.78;;;-3.06;73.42
10167;BME280;62970;53.130;8.244;2023-02-07T00:30:10;104192.19;;;-3.08;73.55
10167;BME280;62970;53.130;8.244;2023-02-07T00:32:41;104199.59;;;-3.11;73.87
10167;BME280;62970;53.130;8.244;2023-02-07T00:35:13;104191.81;;;-3.13;73.69
10167;BME280;62970;53.130;8.244;2023-02-07T00:37:43;104193.47;;;-3.13;73.90
10167;BME280;62970;53.130;8.244;2023-02-07T00:40:12;104189.88;;;-3.15;73.96
10167;BME280;62970;53.130;8.244;2023-02-07T00:42:42;104180.31;;;-3.18;73.71
10167;BME280;62970;53.130;8.244;2023-02-07T00:45:14;104181.81;;;-3.20;73.51
10167;BME280;62970;53.130;8.244;2023-02-07T00:47:46;104166.38;;;-3.21;73.57
10167;BME280;62970;53.130;8.244;2023-02-07T00:50:18;104163.69;;;-3.23;73.47
10167;BME280;62970;53.130;8.244;2023-02-07T00:52:48;104167.00;;;-3.24;73.44
10167;BME280;62970;53.130;8.244;2023-02-07T00:55:17;104179.63;;;-3.25;73.86
10167;BME280;62970;53.130;8.244;2023-02-07T00:57:47;104186.13;;;-3.29;73.40
10167;BME280;62970;53.130;8.244;2023-02-07T01:00:17;104187.66;;;-3.31;73.96
10167;BME280;62970;53.130;8.244;2023-02-07T01:33:58;104198.81;;;-3.78;73.85
10167;BME280;62970;53.130;8.244;2023-02-07T01:36:28;104195.50;;;-3.77;73.77
10167;BME280;62970;53.130;8.244;2023-02-07T01:41:36;104182.88;;;-3.76;74.02
10167;BME280;62970;53.130;8.244;2023-02-07T01:44:55;104184.53;;;-3.76;73.75
10167;BME280;62970;53.130;8.244;2023-02-07T01:47:14;104186.06;;;-3.78;73.41
10167;BME280;62970;53.130;8.244;2023-02-07T01:50:00;104175.84;;;-3.78;73.33
10167;BME280;62970;53.130;8.244;2023-02-07T01:52:37;104173.16;;;-3.80;73.61
10167;BME280;62970;53.130;8.244;2023-02-07T01:55:12;104166.25;;;-3.81;73.72
10167;BME280;62970;53.130;8.244;2023-02-07T01:57:44;104159.38;;;-3.82;73.44
10167;BME280;62970;53.130;8.244;2023-02-07T02:00:16;104155.78;;;-3.84;73.73
10167;BME280;62970;53.130;8.244;2023-02-07T02:02:50;104150.69;;;-3.84;73.44
10167;BME280;62970;53.130;8.244;2023-02-07T02:05:44;104149.66;;;-3.86;73.67
10167;BME280;62970;53.130;8.244;2023-02-07T02:08:14;104157.19;;;-3.87;73.18
10167;BME280;62970;53.130;8.244;2023-02-07T02:11:07;104158.56;;;-3.91;73.41
10167;BME280;62970;53.130;8.244;2023-02-07T02:13:44;104164.28;;;-3.93;73.19
10167;BME280;62970;53.130;8.244;2023-02-07T02:16:26;104173.44;;;-3.95;73.06
10167;BME280;62970;53.130;8.244;2023-02-07T02:19:39;104164.63;;;-3.99;73.14
10167;BME280;62970;53.130;8.244;2023-02-07T02:26:00;104164.56;;;-4.09;72.70
10167;BME280;62970;53.130;8.244;2023-02-07T02:29:08;104168.50;;;-4.13;73.08
10167;BME280;62970;53.130;8.244;2023-02-07T02:35:15;104160.56;;;-4.16;73.36
10167;BME280;62970;53.130;8.244;2023-02-07T02:37:55;104155.19;;;-4.19;73.22
10167;BME280;62970;53.130;8.244;2023-02-07T02:43:19;104143.97;;;-4.21;73.45
10167;BME280;62970;53.130;8.244;2023-02-07T02:45:56;104156.72;;;-4.21;73.50
10167;BME280;62970;53.130;8.244;2023-02-07T02:48:28;104163.59;;;-4.20;73.64
10167;BME280;62970;53.130;8.244;2023-02-07T02:51:02;104166.16;;;-4.20;73.63
10167;BME280;62970;53.130;8.244;2023-02-07T02:53:33;104157.75;;;-4.19;73.49
10167;BME280;62970;53.130;8.244;2023-02-07T02:56:27;104153.28;;;-4.21;73.71
10167;BME280;62970;53.130;8.244;2023-02-07T03:02:29;104161.53;;;-4.24;73.12
10167;BME280;62970;53.130;8.244;2023-02-07T03:05:21;104157.69;;;-4.29;73.22
10167;BME280;62970;53.130;8.244;2023-02-07T03:08:16;104155.00;;;-4.31;73.28
10167;BME280;62970;53.130;8.244;2023-02-07T03:10:58;104161.00;;;-4.30;73.41
10167;BME280;62970;53.130;8.244;2023-02-07T03:13:35;104162.63;;;-4.31;73.31
10167;BME280;62970;53.130;8.244;2023-02-07T03:16:14;104152.78;;;-4.36;73.11
10167;BME280;62970;53.130;8.244;2023-02-07T03:18:53;104152.03;;;-4.35;73.05
10167;BME280;62970;53.130;8.244;2023-02-07T03:21:29;104156.09;;;-4.37;73.26
10167;BME280;62970;53.130;8.244;2023-02-07T03:24:07;104153.41;;;-4.39;73.13
10167;BME280;62970;53.130;8.244;2023-02-07T03:26:39;104150.72;;;-4.40;73.57
10167;BME280;62970;53.130;8.244;2023-02-07T03:29:12;104142.94;;;-4.42;73.55
10167;BME280;62970;53.130;8.244;2023-02-07T03:31:47;104142.19;;;-4.41;73.39
10167;BME280;62970;53.130;8.244;2023-02-07T03:34:19;104141.16;;;-4.43;73.53
10167;BME280;62970;53.130;8.244;2023-02-07T03:36:53;104149.53;;;-4.44;73.34
10167;BME280;62970;53.130;8.244;2023-02-07T03:39:26;104146.72;;;-4.47;73.19
10167;BME280;62970;53.130;8.244;2023-02-07T03:41:58;104149.88;;;-4.49;73.12
10167;BME280;62970;53.130;8.244;2023-02-07T03:44:30;104142.09;;;-4.51;73.13
10167;BME280;62970;53.130;8.244;2023-02-07T03:47:01;104140.31;;;-4.52;73.24
10167;BME280;62970;53.130;8.244;2023-02-07T03:49:30;104146.03;;;-4.54;73.30
10167;BME280;62970;53.130;8.244;2023-02-07T03:52:02;104162.06;;;-4.55;73.31
10167;BME280;62970;53.130;8.244;2023-02-07T03:54:34;104162.06;;;-4.55;73.17
10167;BME280;62970;53.130;8.244;2023-02-07T03:57:05;104160.28;;;-4.56;73.20
10167;BME280;62970;53.130;8.244;2023-02-07T03:59:35;104157.72;;;-4.56;73.66
10167;BME280;62970;53.130;8.244;2023-02-07T04:02:05;104162.81;;;-4.56;73.63
10167;BME280;62970;53.130;8.244;2023-02-07T04:04:34;104162.69;;;-4.58;73.11
10167;BME280;62970;53.130;8.244;2023-02-07T04:07:04;104154.91;;;-4.59;73.04
10167;BME280;62970;53.130;8.244;2023-02-07T04:09:37;104155.50;;;-4.62;73.37
10167;BME280;62970;53.130;8.244;2023-02-07T04:12:10;104151.19;;;-4.63;73.44
10167;BME280;62970;53.130;8.244;2023-02-07T04:14:43;104152.81;;;-4.64;73.34
10167;BME280;62970;53.130;8.244;2023-02-07T04:17:13;104157.66;;;-4.67;73.10
10167;BME280;62970;53.130;8.244;2023-02-07T04:19:43;104157.50;;;-4.68;73.01
10167;BME280;62970;53.130;8.244;2023-02-07T04:22:14;104155.72;;;-4.69;72.84
10167;BME280;62970;53.130;8.244;2023-02-07T04:24:46;104151.22;;;-4.72;73.04
10167;BME280;62970;53.130;8.244;2023-02-07T04:27:16;104157.84;;;-4.74;72.98
10167;BME280;62970;53.130;8.244;2023-02-07T04:29:46;104144.22;;;-4.74;73.03
10167;BME280;62970;53.130;8.244;2023-02-07T04:32:15;104144.06;;;-4.76;73.34
10167;BME280;62970;53.130;8.244;2023-02-07T04:34:44;104141.66;;;-4.74;73.00
10167;BME280;62970;53.130;8.244;2023-02-07T04:37:13;104138.97;;;-4.76;72.78
10167;BME280;62970;53.130;8.244;2023-02-07T04:39:45;104134.34;;;-4.80;72.81
10167;BME280;62970;53.130;8.244;2023-02-07T04:42:16;104128.09;;;-4.83;73.00
10167;BME280;62970;53.130;8.244;2023-02-07T04:44:46;104126.16;;;-4.86;73.00
10167;BME280;62970;53.130;8.244;2023-02-07T04:47:15;104125.13;;;-4.88;72.52
10167;BME280;62970;53.130;8.244;2023-02-07T04:49:46;104135.16;;;-4.89;72.59
10167;BME280;62970;53.130;8.244;2023-02-07T04:52:16;104137.56;;;-4.91;72.68
10167;BME280;62970;53.130;8.244;2023-02-07T04:54:47;104128.88;;;-4.93;73.00
10167;BME280;62970;53.130;8.244;2023-02-07T04:57:17;104125.31;;;-4.95;72.86
10167;BME280;62970;53.130;8.244;2023-02-07T04:59:46;104118.41;;;-4.96;73.04
10167;BME280;62970;53.130;8.244;2023-02-07T05:02:16;104126.06;;;-4.96;72.88
10167;BME280;62970;53.130;8.244;2023-02-07T05:04:46;104134.44;;;-4.97;72.95
10167;BME280;62970;53.130;8.244;2023-02-07T05:07:16;104119.31;;;-4.96;72.76
10167;BME280;62970;53.130;8.244;2023-02-07T05:09:48;104113.94;;;-4.99;72.98
10167;BME280;62970;53.130;8.244;2023-02-07T05:12:18;104113.03;;;-4.99;72.86
10167;BME280;62970;53.130;8.244;2023-02-07T05:14:48;104112.75;;;-5.02;72.37
10167;BME280;62970;53.130;8.244;2023-02-07T05:17:17;104107.53;;;-5.04;72.25
10167;BME280;62970;53.130;8.244;2023-02-07T05:19:47;104113.38;;;-5.05;72.27
10167;BME280;62970;53.130;8.244;2023-02-07T05:22:18;104127.75;;;-5.05;72.38
10167;BME280;62970;53.130;8.244;2023-02-07T05:24:50;104133.44;;;-5.08;72.41
10167;BME280;62970;53.130;8.244;2023-02-07T05:27:21;104131.94;;;-5.06;72.66
10167;BME280;62970;53.130;8.244;2023-02-07T05:29:56;104131.81;;;-5.07;72.27
10167;BME280;62970;53.130;8.244;2023-02-07T05:32:25;104135.25;;;-5.07;72.65
10167;BME280;62970;53.130;8.244;2023-02-07T05:35:07;104132.56;;;-5.08;72.46
10167;BME280;62970;53.130;8.244;2023-02-07T05:37:37;104137.38;;;-5.11;72.50
10167;BME280;62970;53.130;8.244;2023-02-07T05:40:11;104132.88;;;-5.14;72.10
10167;BME280;62970;53.130;8.244;2023-02-07T05:42:42;104143.81;;;-5.15;72.21
10167;BME280;62970;53.130;8.244;2023-02-07T05:45:15;104149.50;;;-5.17;71.74
10167;BME280;62970;53.130;8.244;2023-02-07T05:47:44;104155.06;;;-5.21;71.80
10167;BME280;62970;53.130;8.244;2023-02-07T05:50:14;104152.38;;;-5.23;71.91
10167;BME280;62970;53.130;8.244;2023-02-07T05:52:44;104156.44;;;-5.25;71.50
10167;BME280;62970;53.130;8.244;2023-02-07T05:55:17;104165.56;;;-5.27;71.85
10167;BME280;62970;53.130;8.244;2023-02-07T05:57:46;104167.06;;;-5.29;71.86
10167;BME280;62970;53.130;8.244;2023-02-07T06:00:20;104156.75;;;-5.31;71.78
10167;BME280;62970;53.130;8.244;2023-02-07T06:02:51;104164.25;;;-5.32;71.90
10167;BME280;62970;53.130;8.244;2023-02-07T06:05:21;104165.28;;;-5.30;72.09
10167;BME280;62970;53.130;8.244;2023-02-07T06:07:56;104172.31;;;-5.28;72.41
10167;BME280;62970;53.130;8.244;2023-02-07T06:10:28;104167.97;;;-5.29;72.41
10167;BME280;62970;53.130;8.244;2023-02-07T06:12:58;104169.47;;;-5.31;71.88
10167;BME280;62970;53.130;8.244;2023-02-07T06:15:29;104172.78;;;-5.32;71.90
10167;BME280;62970;53.130;8.244;2023-02-07T06:17:58;104176.81;;;-5.34;71.77
10167;BME280;62970;53.130;8.244;2023-02-07T06:20:28;104175.03;;;-5.35;71.85
10167;BME280;62970;53.130;8.244;2023-02-07T06:22:58;104173.97;;;-5.37;71.70
10167;BME280;62970;53.130;8.244;2023-02-07T06:25:32;104181.31;;;-5.40;71.40
10167;BME280;62970;53.130;8.244;2023-02-07T06:28:03;104176.09;;;-5.41;71.62
10167;BME280;62970;53.130;8.244;2023-02-07T06:30:33;104184.47;;;-5.42;71.66
10167;BME280;62970;53.130;8.244;2023-02-07T06:33:03;104184.31;;;-5.44;71.21
10167;BME280;62970;53.130;8.244;2023-02-07T06:35:32;104184.78;;;-5.48;71.12
10167;BME280;62970;53.130;8.244;2023-02-07T06:38:02;104194.06;;;-5.48;71.13
10167;BME280;62970;53.130;8.244;2023-02-07T06:40:34;104191.22;;;-5.51;71.41
10167;BME280;62970;53.130;8.244;2023-02-07T06:43:04;104185.25;;;-5.52;71.04
10167;BME280;62970;53.130;8.244;2023-02-07T06:45:38;104199.47;;;-5.54;71.31
10167;BME280;62970;53.130;8.244;2023-02-07T06:48:08;104198.56;;;-5.54;71.13
10167;BME280;62970;53.130;8.244;2023-02-07T06:50:37;104196.91;;;-5.54;71.41
10167;BME280;62970;53.130;8.244;2023-02-07T06:53:07;104204.41;;;-5.55;71.31
10167;BME280;62970;53.130;8.244;2023-02-07T06:55:39;104201.72;;;-5.57;70.85
10167;BME280;62970;53.130;8.244;2023-02-07T06:58:09;104200.97;;;-5.56;71.51
10167;BME280;62970;53.130;8.244;2023-02-07T07:00:40;104192.44;;;-5.56;71.49
10167;BME280;62970;53.130;8.244;2023-02-07T07:03:13;104195.88;;;-5.56;71.10
10167;BME280;62970;53.130;8.244;2023-02-07T07:05:43;104207.69;;;-5.56;71.34
10167;BME280;62970;53.130;8.244;2023-02-07T07:08:24;104204.25;;;-5.57;71.22
10167;BME280;62970;53.130;8.244;2023-02-07T07:10:57;104207.69;;;-5.56;71.19
10167;BME280;62970;53.130;8.244;2023-02-07T07:13:28;104210.38;;;-5.55;71.22
10167;BME280;62970;53.130;8.244;2023-02-07T07:15:57;104213.69;;;-5.56;71.52
10167;BME280;62970;53.130;8.244;2023-02-07T07:18:27;104208.59;;;-5.56;71.57
10167;BME280;62970;53.130;8.244;2023-02-07T07:20:57;104213.06;;;-5.53;71.48
10167;BME280;62970;53.130;8.244;2023-02-07T07:23:28;104213.81;;;-5.54;71.29
10167;BME280;62970;53.130;8.244;2023-02-07T07:26:03;104206.34;;;-5.53;71.27
10167;BME280;62970;53.130;8.244;2023-02-07T07:28:35;104220.84;;;-5.52;71.64
10167;BME280;62970;53.130;8.244;2023-02-07T07:31:07;104215.78;;;-5.52;71.55
10167;BME280;62970;53.130;8.244;2023-02-07T07:33:39;104208.28;;;-5.50;71.56
10167;BME280;62970;53.130;8.244;2023-02-07T07:36:08;104216.97;;;-5.48;71.41
10167;BME280;62970;53.130;8.244;2023-02-07T07:38:40;104222.19;;;-5.47;71.92
10167;BME280;62970;53.130;8.244;2023-02-07T07:41:12;104233.56;;;-5.43;71.95
10167;BME280;62970;53.130;8.244;2023-02-07T07:43:41;104225.47;;;-5.39;71.90
10167;BME280;62970;53.130;8.244;2023-02-07T07:46:11;104232.50;;;-5.37;71.81
10167;BME280;62970;53.130;8.244;2023-02-07T07:48:41;104227.72;;;-5.34;72.42
10167;BME280;62970;53.130;8.244;2023-02-07T07:51:10;104228.00;;;-5.31;72.21
10167;BME280;62970;53.130;8.244;2023-02-07T07:53:40;104224.09;;;-5.27;72.19
10167;BME280;62970;53.130;8.244;2023-02-07T07:56:13;104220.19;;;-5.23;72.56
10167;BME280;62970;53.130;8.244;2023-02-07T07:58:44;104223.19;;;-5.19;72.23
10167;BME280;62970;53.130;8.244;2023-02-07T08:01:15;104225.13;;;-5.16;72.78
10167;BME280;62970;53.130;8.244;2023-02-07T08:03:46;104216.88;;;-5.14;72.41
10167;BME280;62970;53.130;8.244;2023-02-07T08:06:17;104212.97;;;-5.10;72.69
10167;BME280;62970;53.130;8.244;2023-02-07T08:08:46;104213.25;;;-5.07;73.12
10167;BME280;62970;53.130;8.244;2023-02-07T08:11:18;104218.78;;;-5.03;72.89
10167;BME280;62970;53.130;8.244;2023-02-07T08:13:48;104214.13;;;-4.98;73.10
10167;BME280;62970;53.130;8.244;2023-02-07T08:16:17;104206.91;;;-4.93;72.79
10167;BME280;62970;53.130;8.244;2023-02-07T08:18:49;104204.66;;;-4.90;73.11
10167;BME280;62970;53.130;8.244;2023-02-07T08:21:26;104197.31;;;-4.87;72.78
10167;BME280;62970;53.130;8.244;2023-02-07T08:23:57;104191.75;;;-4.83;73.03
10167;BME280;62970;53.130;8.244;2023-02-07T08:26:30;104189.63;;;-4.79;73.43
10167;BME280;62970;53.130;8.244;2023-02-07T08:29:02;104188.53;;;-4.72;73.82
10167;BME280;62970;53.130;8.244;2023-02-07T08:31:32;104182.97;;;-4.68;74.01
10167;BME280;62970;53.130;8.244;2023-02-07T08:34:01;104192.81;;;-4.63;73.94
10167;BME280;62970;53.130;8.244;2023-02-07T08:36:31;104185.59;;;-4.58;73.87
10167;BME280;62970;53.130;8.244;2023-02-07T08:39:00;104195.59;;;-4.51;74.53
10167;BME280;62970;53.130;8.244;2023-02-07T08:41:32;104191.22;;;-4.43;74.64
10167;BME280;62970;53.130;8.244;2023-02-07T08:44:03;104202.09;;;-4.36;74.45
10167;BME280;62970;53.130;8.244;2023-02-07T08:46:32;104190.81;;;-4.29;74.46
10167;BME280;62970;53.130;8.244;2023-02-07T08:49:02;104188.06;;;-4.22;74.72
10167;BME280;62970;53.130;8.244;2023-02-07T08:51:33;104197.44;;;-4.12;74.91
10167;BME280;62970;53.130;8.244;2023-02-07T08:54:02;104202.19;;;-4.07;75.13
10167;BME280;62970;53.130;8.244;2023-02-07T08:56:40;104207.72;;;-4.02;75.21
10167;BME280;62970;53.130;8.244;2023-02-07T08:59:13;104205.84;;;-3.94;75.44
10167;BME280;62970;53.130;8.244;2023-02-07T09:01:42;104210.25;;;-3.83;76.07
10167;BME280;62970;53.130;8.244;2023-02-07T09:04:15;104206.72;;;-3.75;76.12
10167;BME280;62970;53.130;8.244;2023-02-07T09:06:45;104197.19;;;-3.68;76.22
10167;BME280;62970;53.130;8.244;2023-02-07T09:09:14;104190.09;;;-3.61;76.26
10167;BME280;62970;53.130;8.244;2023-02-07T09:11:46;104190.63;;;-3.55;76.19
10167;BME280;62970;53.130;8.244;2023-02-07T09:14:16;104197.94;;;-3.50;75.92
10167;BME280;62970;53.130;8.244;2023-02-07T09:16:45;104198.31;;;-3.45;76.02
10167;BME280;62970;53.130;8.244;2023-02-07T09:19:15;104197.19;;;-3.39;76.54
10167;BME280;62970;53.130;8.244;2023-02-07T09:21:44;104192.50;;;-3.34;76.19
10167;BME280;62970;53.130;8.244;2023-02-07T09:24:23;104195.59;;;-3.28;76.27
10167;BME280;62970;53.130;8.244;2023-02-07T09:26:55;104182.47;;;-3.22;76.33
10167;BME280;62970;53.130;8.244;2023-02-07T09:29:24;104182.09;;;-3.17;76.35
10167;BME280;62970;53.130;8.244;2023-02-07T09:31:53;104179.94;;;-3.12;76.36
10167;BME280;62970;53.130;8.244;2023-02-07T09:34:23;104179.56;;;-3.07;76.49
10167;BME280;62970;53.130;8.244;2023-02-07T09:36:52;104177.41;;;-3.02;76.86
10167;BME280;62970;53.130;8.244;2023-02-07T09:39:22;104172.72;;;-2.97;76.48
10167;BME280;62970;53.130;8.244;2023-02-07T09:42:06;104172.22;;;-2.93;76.43
10167;BME280;62970;53.130;8.244;2023-02-07T09:44:48;104182.81;;;-2.89;76.58
10167;BME280;62970;53.130;8.244;2023-02-07T09:47:22;104176.44;;;-2.84;76.48
10167;BME280;62970;53.130;8.244;2023-02-07T09:49:55;104173.38;;;-2.80;77.11
10167;BME280;62970;53.130;8.244;2023-02-07T09:52:36;104180.69;;;-2.74;76.82
10167;BME280;62970;53.130;8.244;2023-02-07T09:55:15;104176.72;;;-2.71;77.14
10167;BME280;62970;53.130;8.244;2023-02-07T09:57:54;104189.88;;;-2.66;77.00
10167;BME280;62970;53.130;8.244;2023-02-07T10:00:27;104193.72;;;-2.61;77.11
10167;BME280;62970;53.130;8.244;2023-02-07T10:03:02;104194.09;;;-2.56;77.00
10167;BME280;62970;53.130;8.244;2023-02-07T10:05:42;104192.69;;;-2.53;77.06
10167;BME280;62970;53.130;8.244;2023-02-07T10:08:16;104197.44;;;-2.47;76.97
10167;BME280;62970;53.130;8.244;2023-02-07T10:11:08;104178.13;;;-2.44;76.89
10167;BME280;62970;53.130;8.244;2023-02-07T10:13:57;104181.19;;;-2.38;76.93
10167;BME280;62970;53.130;8.244;2023-02-07T10:16:46;104189.25;;;-2.33;77.30
10167;BME280;62970;53.130;8.244;2023-02-07T10:19:29;104187.06;;;-2.28;77.48
10167;BME280;62970;53.130;8.244;2023-02-07T10:22:13;104192.69;;;-2.22;77.22
10167;BME280;62970;53.130;8.244;2023-02-07T10:25:19;104183.72;;;-2.17;77.60
10167;BME280;62970;53.130;8.244;2023-02-07T10:28:01;104187.69;;;-2.11;77.36
10167;BME280;62970;53.130;8.244;2023-02-07T10:30:36;104174.38;;;-2.07;77.25
10167;BME280;62970;53.130;8.244;2023-02-07T10:33:14;104177.31;;;-2.02;77.78
10167;BME280;62970;53.130;8.244;2023-02-07T10:35:46;104179.47;;;-1.96;77.69
10167;BME280;62970;53.130;8.244;2023-02-07T10:38:24;104179.06;;;-1.91;77.70
10167;BME280;62970;53.130;8.244;2023-02-07T10:41:03;104166.78;;;-1.85;77.69
10167;BME280;62970;53.130;8.244;2023-02-07T10:43:35;104164.59;;;-1.80;77.52
10167;BME280;62970;53.130;8.244;2023-02-07T10:46:12;104163.19;;;-1.77;77.87
10167;BME280;62970;53.130;8.244;2023-02-07T10:48:45;104162.91;;;-1.69;77.61
10167;BME280;62970;53.130;8.244;2023-02-07T10:51:24;104153.78;;;-1.66;77.70
10167;BME280;62970;53.130;8.244;2023-02-07T10:54:06;104153.38;;;-1.60;77.76
10167;BME280;62970;53.130;8.244;2023-02-07T10:56:42;104151.19;;;-1.56;78.06
10167;BME280;62970;53.130;8.244;2023-02-07T10:59:37;104150.78;;;-1.50;77.67
10167;BME280;62970;53.130;8.244;2023-02-07T11:02:55;104150.38;;;-1.45;78.01
10167;BME280;62970;53.130;8.244;2023-02-07T11:05:55;104150.72;;;-1.40;77.88
10167;BME280;62970;53.130;8.244;2023-02-07T11:08:28;104151.09;;;-1.35;77.59
10167;BME280;62970;53.130;8.244;2023-02-07T11:11:15;104147.88;;;-1.33;77.98
10167;BME280;62970;53.130;8.244;2023-02-07T11:13:48;104147.47;;;-1.27;77.89
10167;BME280;62970;53.130;8.244;2023-02-07T11:16:19;104139.25;;;-1.23;77.72
10167;BME280;62970;53.130;8.244;2023-02-07T11:18:58;104135.25;;;-1.20;77.61
10167;BME280;62970;53.130;8.244;2023-02-07T11:21:30;104136.50;;;-1.15;77.43
10167;BME280;62970;53.130;8.244;2023-02-07T11:24:06;104128.28;;;-1.11;77.67
10167;BME280;62970;53.130;8.244;2023-02-07T11:26:49;104133.63;;;-1.08;77.27
10167;BME280;62970;53.130;8.244;2023-02-07T11:29:23;104132.31;;;-1.02;77.51
10167;BME280;62970;53.130;8.244;2023-02-07T11:31:56;104130.88;;;-0.99;77.42
10167;BME280;62970;53.130;8.244;2023-02-07T11:34:43;104126.78;;;-0.97;77.21
10167;BME280;62970;53.130;8.244;2023-02-07T11:37:25;104115.09;;;-0.93;77.58
10167;BME280;62970;53.130;8.244;2023-02-07T11:40:18;104118.78;;;-0.90;77.25
10167;BME280;62970;53.130;8.244;2023-02-07T11:42:49;104114.78;;;-0.86;77.29
10167;BME280;62970;53.130;8.244;2023-02-07T11:45:25;104114.25;;;-0.82;77.21
10167;BME280;62970;53.130;8.244;2023-02-07T11:47:56;104116.25;;;-0.78;77.64
10167;BME280;62970;53.130;8.244;2023-02-07T11:50:33;104112.38;;;-0.73;77.59
10167;BME280;62970;53.130;8.244;2023-02-07T11:53:04;104111.03;;;-0.68;77.39
10167;BME280;62970;53.130;8.244;2023-02-07T11:55:38;104116.50;;;-0.63;77.74
10167;BME280;62970;53.130;8.244;2023-02-07T11:58:18;104116.06;;;-0.58;77.78
10167;BME280;62970;53.130;8.244;2023-02-07T12:00:48;104118.97;;;-0.53;77.75
10167;BME280;62970;53.130;8.244;2023-02-07T12:03:21;104120.09;;;-0.50;77.70
10167;BME280;62970;53.130;8.244;2023-02-07T12:05:57;104123.78;;;-0.46;77.47
10167;BME280;62970;53.130;8.244;2023-02-07T12:08:31;104119.16;;;-0.40;77.55
10167;BME280;62970;53.130;8.244;2023-02-07T12:11:09;104120.28;;;-0.36;78.07
10167;BME280;62970;53.130;8.244;2023-02-07T12:13:43;104118.16;;;-0.30;77.93
10167;BME280;62970;53.130;8.244;2023-02-07T12:16:20;104113.38;;;-0.26;77.86
10167;BME280;62970;53.130;8.244;2023-02-07T12:18:54;104116.28;;;-0.21;77.61
10167;BME280;62970;53.130;8.244;2023-02-07T12:21:35;104120.06;;;-0.16;78.00
10167;BME280;62970;53.130;8.244;2023-02-07T12:24:13;104119.50;;;-0.12;77.82
10167;BME280;62970;53.130;8.244;2023-02-07T12:26:51;104117.16;;;-0.09;77.70
10167;BME280;62970;53.130;8.244;2023-02-07T12:29:36;104110.59;;;-0.05;77.86
10167;BME280;62970;53.130;8.244;2023-02-07T12:32:19;104115.16;;;-0.01;77.99
10167;BME280;62970;53.130;8.244;2023-02-07T12:34:56;104117.94;;;0.02;78.05
10167;BME280;62970;53.130;8.244;2023-02-07T12:37:51;104113.91;;;0.05;77.68
10167;BME280;62970;53.130;8.244;2023-02-07T12:40:31;104111.69;;;0.10;77.69
10167;BME280;62970;53.130;8.244;2023-02-07T12:43:09;104105.00;;;0.12;78.17
10167;BME280;62970;53.130;8.244;2023-02-07T12:49:17;104102.84;;;0.18;77.93
10167;BME280;62970;53.130;8.244;2023-02-07T12:52:23;104110.88;;;0.22;78.15
10167;BME280;62970;53.130;8.244;2023-02-07T12:55:15;104112.88;;;0.27;77.95
10167;BME280;62970;53.130;8.244;2023-02-07T12:58:00;104114.78;;;0.29;78.07
10167;BME280;62970;53.130;8.244;2023-02-07T13:00:47;104115.00;;;0.32;77.88
10167;BME280;62970;53.130;8.244;2023-02-07T13:03:40;104104.06;;;0.35;77.98
10167;BME280;62970;53.130;8.244;2023-02-07T13:06:22;104108.63;;;0.39;77.77
10167;BME280;62970;53.130;8.244;2023-02-07T13:09:03;104107.06;;;0.41;77.96
10167;BME280;62970;53.130;8.244;2023-02-07T13:11:43;104108.06;;;0.43;77.79
10167;BME280;62970;53.130;8.244;2023-02-07T13:14:28;104098.78;;;0.45;77.82
10167;BME280;62970;53.130;8.244;2023-02-07T13:17:27;104101.47;;;0.46;77.79
10167;BME280;62970;53.130;8.244;2023-02-07T13:20:06;104102.47;;;0.48;77.65
10167;BME280;62970;53.130;8.244;2023-02-07T13:22:44;104097.44;;;0.50;77.66
10167;BME280;62970;53.130;8.244;2023-02-07T13:25:20;104094.97;;;0.51;77.67
10167;BME280;62970;53.130;8.244;2023-02-07T13:27:58;104093.28;;;0.52;77.86
10167;BME280;62970;53.130;8.244;2023-02-07T13:30:29;104101.22;;;0.55;78.05
10167;BME280;62970;53.130;8.244;2023-02-07T13:33:03;104092.72;;;0.56;78.02
10167;BME280;62970;53.130;8.244;2023-02-07T13:35:36;104095.41;;;0.58;77.77
10167;BME280;62970;53.130;8.244;2023-02-07T13:38:17;104090.38;;;0.59;77.89
10167;BME280;62970;53.130;8.244;2023-02-07T13:40:54;104080.97;;;0.60;77.87
10167;BME280;62970;53.130;8.244;2023-02-07T13:43:42;104078.53;;;0.61;77.61
10167;BME280;62970;53.130;8.244;2023-02-07T13:46:53;104088.91;;;0.63;78.06
10167;BME280;62970;53.130;8.244;2023-02-07T13:49:39;104076.94;;;0.63;77.63
10167;BME280;62970;53.130;8.244;2023-02-07T13:52:14;104081.31;;;0.64;77.93
10167;BME280;62970;53.130;8.244;2023-02-07T13:54:56;104076.28;;;0.66;77.86
10167;BME280;62970;53.130;8.244;2023-02-07T13:57:41;104077.94;;;0.65;77.62
10167;BME280;62970;53.130;8.244;2023-02-07T14:00:29;104077.16;;;0.66;77.78
10167;BME280;62970;53.130;8.244;2023-02-07T14:03:00;104078.94;;;0.67;77.84
10167;BME280;62970;53.130;8.244;2023-02-07T14:05:39;104075.59;;;0.68;78.21
10167;BME280;62970;53.130;8.244;2023-02-07T14:08:22;104082.50;;;0.69;77.97
10167;BME280;62970;53.130;8.244;2023-02-07T14:10:53;104081.84;;;0.72;78.11
10167;BME280;62970;53.130;8.244;2023-02-07T14:13:33;104080.16;;;0.72;78.13
10167;BME280;62970;53.130;8.244;2023-02-07T14:16:10;104079.38;;;0.73;77.70
10167;BME280;62970;53.130;8.244;2023-02-07T14:21:41;104085.41;;;0.74;77.43
10167;BME280;62970;53.130;8.244;2023-02-07T14:24:50;104087.88;;;0.72;77.52